sensor_id;sensor_type;location;lat;lon;timestamp;P1;durP1;ratioP1;P2;durP2;ratioP2
1679;SDS011;838;51.794;12.258;2023-10-13T00:00:37;15.30;;;9.50;;
1679;SDS011;838;51.794;12.258;2023-10-13T00:03:06;13.30;;;9.13;;
1679;SDS011;838;51.794;12.258;2023-10-13T00:05:40;16.23;;;9.60;;
1679;SDS011;838;51.794;12.258;2023-10-13T00:08:08;12.30;;;8.77;;
1679;SDS011;838;51.794;12.258;2023-10-13T00:10:34;16.97;;;9.87;;
1679;SDS011;838;51.794;12.258;2023-10-13T00:13:00;14.97;;;9.27;;
1679;SDS011;838;51.794;12.258;2023-10-13T00:15:41;12.10;;;8.63;;
1679;SDS011;838;51.794;12.258;2023-10-13T00:18:24;13.13;;;9.10;;
1679;SDS011;838;51.794;12.258;2023-10-13T00:20:59;16.43;;;10.40;;
1679;SDS011;838;51.794;12.258;2023-10-13T00:23:25;16.23;;;10.90;;
1679;SDS011;838;51.794;12.258;2023-10-13T00:25:57;11.60;;;8.20;;
1679;SDS011;838;51.794;12.258;2023-10-13T00:28:27;13.17;;;8.17;;
1679;SDS011;838;51.794;12.258;2023-10-13T00:31:01;16.60;;;10.13;;
1679;SDS011;838;51.794;12.258;2023-10-13T00:33:38;13.97;;;8.50;;
1679;SDS011;838;51.794;12.258;2023-10-13T00:36:11;13.53;;;8.90;;
1679;SDS011;838;51.794;12.258;2023-10-13T00:38:44;14.50;;;8.63;;
1679;SDS011;838;51.794;12.258;2023-10-13T00:41:13;10.70;;;8.70;;
1679;SDS011;838;51.794;12.258;2023-10-13T00:43:47;15.50;;;9.70;;
1679;SDS011;838;51.794;12.258;2023-10-13T00:46:30;16.47;;;9.03;;
1679;SDS011;838;51.794;12.258;2023-10-13T00:48:59;13.87;;;8.60;;
1679;SDS011;838;51.794;12.258;2023-10-13T00:51:25;14.53;;;8.50;;
1679;SDS011;838;51.794;12.258;2023-10-13T00:54:12;13.67;;;8.67;;
1679;SDS011;838;51.794;12.258;2023-10-13T00:56:41;17.47;;;10.47;;
1679;SDS011;838;51.794;12.258;2023-10-13T00:59:22;14.07;;;9.53;;
1679;SDS011;838;51.794;12.258;2023-10-13T01:01:51;13.00;;;8.33;;
1679;SDS011;838;51.794;12.258;2023-10-13T01:04:20;14.53;;;9.90;;
1679;SDS011;838;51.794;12.258;2023-10-13T01:06:48;12.70;;;8.80;;
1679;SDS011;838;51.794;12.258;2023-10-13T01:09:14;14.40;;;8.93;;
1679;SDS011;838;51.794;12.258;2023-10-13T01:11:49;12.23;;;8.80;;
1679;SDS011;838;51.794;12.258;2023-10-13T01:14:19;13.30;;;8.73;;
1679;SDS011;838;51.794;12.258;2023-10-13T01:16:48;19.17;;;9.53;;
1679;SDS011;838;51.794;12.258;2023-10-13T01:19:18;14.00;;;9.30;;
1679;SDS011;838;51.794;12.258;2023-10-13T01:21:52;13.03;;;8.77;;
1679;SDS011;838;51.794;12.258;2023-10-13T01:24:26;16.07;;;9.60;;
1679;SDS011;838;51.794;12.258;2023-10-13T01:26:56;14.67;;;9.30;;
1679;SDS011;838;51.794;12.258;2023-10-13T01:29:23;15.37;;;9.87;;
1679;SDS011;838;51.794;12.258;2023-10-13T01:31:54;13.70;;;8.97;;
1679;SDS011;838;51.794;12.258;2023-10-13T01:34:22;16.27;;;8.80;;
1679;SDS011;838;51.794;12.258;2023-10-13T01:36:52;13.00;;;9.03;;
1679;SDS011;838;51.794;12.258;2023-10-13T01:39:22;14.27;;;9.50;;
1679;SDS011;838;51.794;12.258;2023-10-13T01:41:53;17.93;;;8.57;;
1679;SDS011;838;51.794;12.258;2023-10-13T01:44:26;11.53;;;8.53;;
1679;SDS011;838;51.794;12.258;2023-10-13T01:46:58;13.63;;;8.67;;
1679;SDS011;838;51.794;12.258;2023-10-13T01:49:34;13.57;;;8.57;;
1679;SDS011;838;51.794;12.258;2023-10-13T01:52:07;15.20;;;9.37;;
1679;SDS011;838;51.794;12.258;2023-10-13T01:54:36;11.20;;;8.67;;
1679;SDS011;838;51.794;12.258;2023-10-13T01:57:06;13.87;;;8.77;;
1679;SDS011;838;51.794;12.258;2023-10-13T01:59:32;12.93;;;8.17;;
1679;SDS011;838;51.794;12.258;2023-10-13T02:01:58;13.13;;;9.00;;
1679;SDS011;838;51.794;12.258;2023-10-13T02:04:26;13.40;;;8.87;;
1679;SDS011;838;51.794;12.258;2023-10-13T02:06:53;17.93;;;7.67;;
1679;SDS011;838;51.794;12.258;2023-10-13T02:09:21;12.00;;;7.50;;
1679;SDS011;838;51.794;12.258;2023-10-13T02:11:54;12.47;;;8.00;;
1679;SDS011;838;51.794;12.258;2023-10-13T02:14:22;12.73;;;8.47;;
1679;SDS011;838;51.794;12.258;2023-10-13T02:16:51;11.67;;;8.13;;
1679;SDS011;838;51.794;12.258;2023-10-13T02:19:21;12.70;;;8.13;;
1679;SDS011;838;51.794;12.258;2023-10-13T02:21:52;11.03;;;7.47;;
1679;SDS011;838;51.794;12.258;2023-10-13T02:24:23;10.90;;;7.10;;
1679;SDS011;838;51.794;12.258;2023-10-13T02:26:55;14.53;;;8.20;;
1679;SDS011;838;51.794;12.258;2023-10-13T02:29:28;11.57;;;7.50;;
1679;SDS011;838;51.794;12.258;2023-10-13T02:31:54;11.20;;;7.33;;
1679;SDS011;838;51.794;12.258;2023-10-13T02:34:21;12.13;;;7.77;;
1679;SDS011;838;51.794;12.258;2023-10-13T02:36:49;10.97;;;7.60;;
1679;SDS011;838;51.794;12.258;2023-10-13T02:39:15;13.50;;;7.13;;
1679;SDS011;838;51.794;12.258;2023-10-13T02:41:41;12.63;;;7.57;;
1679;SDS011;838;51.794;12.258;2023-10-13T02:44:13;14.77;;;8.27;;
1679;SDS011;838;51.794;12.258;2023-10-13T02:46:52;12.67;;;7.60;;
1679;SDS011;838;51.794;12.258;2023-10-13T02:49:30;11.10;;;7.20;;
1679;SDS011;838;51.794;12.258;2023-10-13T02:52:02;13.67;;;8.37;;
1679;SDS011;838;51.794;12.258;2023-10-13T02:54:33;12.00;;;7.70;;
1679;SDS011;838;51.794;12.258;2023-10-13T02:57:07;12.33;;;8.47;;
1679;SDS011;838;51.794;12.258;2023-10-13T02:59:33;15.87;;;8.50;;
1679;SDS011;838;51.794;12.258;2023-10-13T03:02:02;12.53;;;8.23;;
1679;SDS011;838;51.794;12.258;2023-10-13T03:04:42;9.70;;;7.60;;
1679;SDS011;838;51.794;12.258;2023-10-13T03:07:12;13.03;;;8.20;;
1679;SDS011;838;51.794;12.258;2023-10-13T03:09:41;16.37;;;8.10;;
1679;SDS011;838;51.794;12.258;2023-10-13T03:12:15;11.20;;;8.70;;
1679;SDS011;838;51.794;12.258;2023-10-13T03:14:42;12.23;;;8.57;;
1679;SDS011;838;51.794;12.258;2023-10-13T03:17:12;11.57;;;9.13;;
1679;SDS011;838;51.794;12.258;2023-10-13T03:19:47;15.10;;;8.60;;
1679;SDS011;838;51.794;12.258;2023-10-13T03:22:16;12.03;;;8.50;;
1679;SDS011;838;51.794;12.258;2023-10-13T03:24:43;11.80;;;8.30;;
1679;SDS011;838;51.794;12.258;2023-10-13T03:27:13;12.90;;;9.20;;
1679;SDS011;838;51.794;12.258;2023-10-13T03:29:44;11.90;;;8.93;;
1679;SDS011;838;51.794;12.258;2023-10-13T03:32:19;15.90;;;9.83;;
1679;SDS011;838;51.794;12.258;2023-10-13T03:34:46;12.90;;;9.10;;
1679;SDS011;838;51.794;12.258;2023-10-13T03:37:18;12.73;;;7.73;;
1679;SDS011;838;51.794;12.258;2023-10-13T03:40:12;14.13;;;8.70;;
1679;SDS011;838;51.794;12.258;2023-10-13T03:42:44;13.07;;;8.57;;
1679;SDS011;838;51.794;12.258;2023-10-13T03:45:29;15.27;;;9.97;;
1679;SDS011;838;51.794;12.258;2023-10-13T03:48:09;13.70;;;9.47;;
1679;SDS011;838;51.794;12.258;2023-10-13T03:50:58;14.73;;;8.73;;
1679;SDS011;838;51.794;12.258;2023-10-13T03:53:45;11.90;;;8.43;;
1679;SDS011;838;51.794;12.258;2023-10-13T03:56:23;19.30;;;10.23;;
1679;SDS011;838;51.794;12.258;2023-10-13T03:58:56;12.87;;;8.87;;
1679;SDS011;838;51.794;12.258;2023-10-13T04:01:26;12.97;;;8.90;;
1679;SDS011;838;51.794;12.258;2023-10-13T04:04:10;17.27;;;9.20;;
1679;SDS011;838;51.794;12.258;2023-10-13T04:06:37;10.70;;;8.17;;
1679;SDS011;838;51.794;12.258;2023-10-13T04:14:32;12.77;;;8.07;;
1679;SDS011;838;51.794;12.258;2023-10-13T04:17:21;12.23;;;7.90;;
1679;SDS011;838;51.794;12.258;2023-10-13T04:19:51;11.53;;;8.27;;
1679;SDS011;838;51.794;12.258;2023-10-13T04:22:33;12.53;;;8.60;;
1679;SDS011;838;51.794;12.258;2023-10-13T04:25:15;13.30;;;9.80;;
1679;SDS011;838;51.794;12.258;2023-10-13T04:28:06;13.30;;;9.13;;
1679;SDS011;838;51.794;12.258;2023-10-13T04:30:43;11.60;;;8.93;;
1679;SDS011;838;51.794;12.258;2023-10-13T04:33:23;11.60;;;8.87;;
1679;SDS011;838;51.794;12.258;2023-10-13T04:38:37;13.93;;;9.97;;
1679;SDS011;838;51.794;12.258;2023-10-13T04:41:24;11.23;;;8.03;;
1679;SDS011;838;51.794;12.258;2023-10-13T04:44:00;12.77;;;8.07;;
1679;SDS011;838;51.794;12.258;2023-10-13T04:46:44;12.37;;;9.20;;
1679;SDS011;838;51.794;12.258;2023-10-13T04:49:10;15.70;;;9.90;;
1679;SDS011;838;51.794;12.258;2023-10-13T04:51:51;16.53;;;9.20;;
1679;SDS011;838;51.794;12.258;2023-10-13T04:54:27;13.13;;;7.80;;
1679;SDS011;838;51.794;12.258;2023-10-13T04:57:18;13.27;;;9.27;;
1679;SDS011;838;51.794;12.258;2023-10-13T05:00:16;11.87;;;9.30;;
1679;SDS011;838;51.794;12.258;2023-10-13T05:02:43;12.63;;;8.60;;
1679;SDS011;838;51.794;12.258;2023-10-13T05:05:25;13.67;;;9.40;;
1679;SDS011;838;51.794;12.258;2023-10-13T05:07:51;13.00;;;8.90;;
1679;SDS011;838;51.794;12.258;2023-10-13T05:10:36;10.87;;;8.90;;
1679;SDS011;838;51.794;12.258;2023-10-13T05:13:20;11.07;;;7.80;;
1679;SDS011;838;51.794;12.258;2023-10-13T05:16:05;15.43;;;9.00;;
1679;SDS011;838;51.794;12.258;2023-10-13T05:18:49;14.70;;;8.93;;
1679;SDS011;838;51.794;12.258;2023-10-13T05:21:33;10.17;;;7.63;;
1679;SDS011;838;51.794;12.258;2023-10-13T05:24:17;12.10;;;8.00;;
1679;SDS011;838;51.794;12.258;2023-10-13T05:27:01;12.10;;;7.60;;
1679;SDS011;838;51.794;12.258;2023-10-13T05:29:46;10.87;;;7.87;;
1679;SDS011;838;51.794;12.258;2023-10-13T05:32:32;12.77;;;8.20;;
1679;SDS011;838;51.794;12.258;2023-10-13T05:35:18;12.00;;;9.30;;
1679;SDS011;838;51.794;12.258;2023-10-13T05:38:06;14.87;;;8.13;;
1679;SDS011;838;51.794;12.258;2023-10-13T05:41:23;13.03;;;8.70;;
1679;SDS011;838;51.794;12.258;2023-10-13T05:44:01;15.37;;;8.90;;
1679;SDS011;838;51.794;12.258;2023-10-13T05:46:45;10.43;;;8.30;;
1679;SDS011;838;51.794;12.258;2023-10-13T05:49:29;11.67;;;7.80;;
1679;SDS011;838;51.794;12.258;2023-10-13T05:52:13;10.80;;;7.60;;
1679;SDS011;838;51.794;12.258;2023-10-13T05:55:05;10.33;;;7.50;;
1679;SDS011;838;51.794;12.258;2023-10-13T05:57:49;12.10;;;7.00;;
1679;SDS011;838;51.794;12.258;2023-10-13T06:00:37;10.00;;;7.87;;
1679;SDS011;838;51.794;12.258;2023-10-13T06:03:23;10.10;;;7.53;;
1679;SDS011;838;51.794;12.258;2023-10-13T06:06:07;12.03;;;7.00;;
1679;SDS011;838;51.794;12.258;2023-10-13T06:08:52;10.53;;;6.57;;
1679;SDS011;838;51.794;12.258;2023-10-13T06:11:36;8.97;;;5.87;;
1679;SDS011;838;51.794;12.258;2023-10-13T06:14:21;8.40;;;6.63;;
1679;SDS011;838;51.794;12.258;2023-10-13T06:17:05;8.90;;;6.10;;
1679;SDS011;838;51.794;12.258;2023-10-13T06:19:50;11.37;;;5.83;;
1679;SDS011;838;51.794;12.258;2023-10-13T06:22:34;8.60;;;6.13;;
1679;SDS011;838;51.794;12.258;2023-10-13T06:25:18;13.20;;;7.13;;
1679;SDS011;838;51.794;12.258;2023-10-13T06:28:03;8.87;;;5.50;;
1679;SDS011;838;51.794;12.258;2023-10-13T06:30:55;9.10;;;5.73;;
1679;SDS011;838;51.794;12.258;2023-10-13T06:33:23;7.37;;;5.83;;
1679;SDS011;838;51.794;12.258;2023-10-13T06:35:54;7.67;;;5.50;;
1679;SDS011;838;51.794;12.258;2023-10-13T06:38:22;7.40;;;5.20;;
1679;SDS011;838;51.794;12.258;2023-10-13T06:40:48;9.10;;;5.77;;
1679;SDS011;838;51.794;12.258;2023-10-13T06:43:17;8.50;;;5.30;;
1679;SDS011;838;51.794;12.258;2023-10-13T06:45:47;8.57;;;5.67;;
1679;SDS011;838;51.794;12.258;2023-10-13T06:48:25;6.90;;;5.20;;
1679;SDS011;838;51.794;12.258;2023-10-13T06:51:00;8.47;;;5.73;;
1679;SDS011;838;51.794;12.258;2023-10-13T06:53:50;8.60;;;5.50;;
1679;SDS011;838;51.794;12.258;2023-10-13T06:56:21;7.50;;;4.90;;
1679;SDS011;838;51.794;12.258;2023-10-13T06:58:50;8.10;;;5.20;;
1679;SDS011;838;51.794;12.258;2023-10-13T07:01:16;7.80;;;5.20;;
1679;SDS011;838;51.794;12.258;2023-10-13T07:03:47;7.70;;;5.40;;
1679;SDS011;838;51.794;12.258;2023-10-13T07:06:22;9.47;;;5.30;;
1679;SDS011;838;51.794;12.258;2023-10-13T07:08:50;8.70;;;5.90;;
1679;SDS011;838;51.794;12.258;2023-10-13T07:11:24;8.70;;;6.40;;
1679;SDS011;838;51.794;12.258;2023-10-13T07:14:00;7.20;;;5.07;;
1679;SDS011;838;51.794;12.258;2023-10-13T07:16:41;6.63;;;4.77;;
1679;SDS011;838;51.794;12.258;2023-10-13T07:19:12;7.13;;;4.57;;
1679;SDS011;838;51.794;12.258;2023-10-13T07:21:44;7.83;;;4.70;;
1679;SDS011;838;51.794;12.258;2023-10-13T07:24:11;6.30;;;4.37;;
1679;SDS011;838;51.794;12.258;2023-10-13T07:26:39;6.80;;;4.60;;
1679;SDS011;838;51.794;12.258;2023-10-13T07:29:08;9.87;;;5.13;;
1679;SDS011;838;51.794;12.258;2023-10-13T07:31:35;7.70;;;5.27;;
1679;SDS011;838;51.794;12.258;2023-10-13T07:34:03;9.37;;;5.57;;
1679;SDS011;838;51.794;12.258;2023-10-13T07:36:50;6.40;;;4.70;;
1679;SDS011;838;51.794;12.258;2023-10-13T07:39:29;6.10;;;4.20;;
1679;SDS011;838;51.794;12.258;2023-10-13T07:42:04;8.70;;;4.97;;
1679;SDS011;838;51.794;12.258;2023-10-13T07:44:40;9.13;;;5.53;;
1679;SDS011;838;51.794;12.258;2023-10-13T07:47:11;7.73;;;4.10;;
1679;SDS011;838;51.794;12.258;2023-10-13T07:49:42;6.73;;;4.83;;
1679;SDS011;838;51.794;12.258;2023-10-13T07:52:09;6.83;;;4.13;;
1679;SDS011;838;51.794;12.258;2023-10-13T07:55:01;8.53;;;4.80;;
1679;SDS011;838;51.794;12.258;2023-10-13T07:57:45;11.20;;;4.90;;
1679;SDS011;838;51.794;12.258;2023-10-13T08:00:21;7.10;;;4.67;;
1679;SDS011;838;51.794;12.258;2023-10-13T08:03:08;9.27;;;5.50;;
1679;SDS011;838;51.794;12.258;2023-10-13T08:05:55;5.77;;;4.57;;
1679;SDS011;838;51.794;12.258;2023-10-13T08:08:31;10.00;;;4.53;;
1679;SDS011;838;51.794;12.258;2023-10-13T08:11:08;6.90;;;4.40;;
1679;SDS011;838;51.794;12.258;2023-10-13T08:13:59;8.00;;;4.20;;
1679;SDS011;838;51.794;12.258;2023-10-13T08:16:56;9.23;;;5.20;;
1679;SDS011;838;51.794;12.258;2023-10-13T08:19:26;7.00;;;4.47;;
1679;SDS011;838;51.794;12.258;2023-10-13T08:22:02;7.00;;;4.63;;
1679;SDS011;838;51.794;12.258;2023-10-13T08:24:43;9.17;;;4.23;;
1679;SDS011;838;51.794;12.258;2023-10-13T08:27:09;7.63;;;5.17;;
1679;SDS011;838;51.794;12.258;2023-10-13T08:29:54;7.10;;;5.10;;
1679;SDS011;838;51.794;12.258;2023-10-13T08:32:22;7.50;;;5.33;;
1679;SDS011;838;51.794;12.258;2023-10-13T08:37:20;7.13;;;4.57;;
1679;SDS011;838;51.794;12.258;2023-10-13T08:39:47;7.80;;;4.20;;
1679;SDS011;838;51.794;12.258;2023-10-13T08:42:35;6.70;;;4.70;;
1679;SDS011;838;51.794;12.258;2023-10-13T08:45:08;6.30;;;4.17;;
1679;SDS011;838;51.794;12.258;2023-10-13T08:50:45;7.53;;;4.50;;
1679;SDS011;838;51.794;12.258;2023-10-13T08:53:22;7.80;;;4.77;;
1679;SDS011;838;51.794;12.258;2023-10-13T08:55:59;6.97;;;4.30;;
1679;SDS011;838;51.794;12.258;2023-10-13T08:58:31;8.23;;;4.60;;
1679;SDS011;838;51.794;12.258;2023-10-13T09:01:17;10.77;;;5.30;;
1679;SDS011;838;51.794;12.258;2023-10-13T09:04:06;9.40;;;4.90;;
1679;SDS011;838;51.794;12.258;2023-10-13T09:06:49;7.10;;;5.13;;
1679;SDS011;838;51.794;12.258;2023-10-13T09:12:19;7.17;;;4.93;;
1679;SDS011;838;51.794;12.258;2023-10-13T09:14:59;9.20;;;5.30;;
1679;SDS011;838;51.794;12.258;2023-10-13T09:17:44;8.90;;;5.90;;
1679;SDS011;838;51.794;12.258;2023-10-13T09:20:18;8.77;;;5.30;;
1679;SDS011;838;51.794;12.258;2023-10-13T09:23:11;7.47;;;5.10;;
1679;SDS011;838;51.794;12.258;2023-10-13T09:25:52;7.70;;;5.30;;
1679;SDS011;838;51.794;12.258;2023-10-13T09:28:34;10.07;;;6.80;;
1679;SDS011;838;51.794;12.258;2023-10-13T09:31:02;12.60;;;6.13;;
1679;SDS011;838;51.794;12.258;2023-10-13T09:33:35;8.33;;;5.70;;
1679;SDS011;838;51.794;12.258;2023-10-13T09:36:15;7.87;;;5.73;;
1679;SDS011;838;51.794;12.258;2023-10-13T09:38:42;11.37;;;6.07;;
1679;SDS011;838;51.794;12.258;2023-10-13T09:41:29;8.93;;;5.90;;
1679;SDS011;838;51.794;12.258;2023-10-13T09:43:57;10.80;;;6.70;;
1679;SDS011;838;51.794;12.258;2023-10-13T09:46:25;10.63;;;5.87;;
1679;SDS011;838;51.794;12.258;2023-10-13T09:49:03;9.33;;;6.30;;
1679;SDS011;838;51.794;12.258;2023-10-13T09:51:41;8.80;;;6.57;;
1679;SDS011;838;51.794;12.258;2023-10-13T09:54:24;13.30;;;7.70;;
1679;SDS011;838;51.794;12.258;2023-10-13T09:56:58;10.07;;;6.77;;
1679;SDS011;838;51.794;12.258;2023-10-13T09:59:55;10.10;;;6.23;;
1679;SDS011;838;51.794;12.258;2023-10-13T10:02:52;8.57;;;6.30;;
1679;SDS011;838;51.794;12.258;2023-10-13T10:05:26;13.40;;;7.00;;
1679;SDS011;838;51.794;12.258;2023-10-13T10:07:58;13.33;;;7.40;;
1679;SDS011;838;51.794;12.258;2023-10-13T10:10:27;9.93;;;7.47;;
1679;SDS011;838;51.794;12.258;2023-10-13T10:13:25;9.20;;;6.73;;
1679;SDS011;838;51.794;12.258;2023-10-13T10:16:23;8.43;;;6.93;;
1679;SDS011;838;51.794;12.258;2023-10-13T10:19:12;8.20;;;6.50;;
1679;SDS011;838;51.794;12.258;2023-10-13T10:21:38;11.73;;;6.90;;
1679;SDS011;838;51.794;12.258;2023-10-13T10:24:21;14.80;;;8.53;;
1679;SDS011;838;51.794;12.258;2023-10-13T10:26:58;11.67;;;6.63;;
1679;SDS011;838;51.794;12.258;2023-10-13T10:29:27;9.53;;;6.77;;
1679;SDS011;838;51.794;12.258;2023-10-13T10:31:57;15.17;;;7.10;;
1679;SDS011;838;51.794;12.258;2023-10-13T10:34:29;8.60;;;7.00;;
1679;SDS011;838;51.794;12.258;2023-10-13T10:36:58;9.07;;;7.27;;
1679;SDS011;838;51.794;12.258;2023-10-13T10:39:34;8.77;;;6.30;;
1679;SDS011;838;51.794;12.258;2023-10-13T10:42:14;12.23;;;7.80;;
1679;SDS011;838;51.794;12.258;2023-10-13T10:44:42;10.03;;;7.27;;
1679;SDS011;838;51.794;12.258;2023-10-13T10:47:13;12.40;;;6.77;;
1679;SDS011;838;51.794;12.258;2023-10-13T10:50:02;10.13;;;6.47;;
1679;SDS011;838;51.794;12.258;2023-10-13T10:52:53;11.87;;;5.97;;
1679;SDS011;838;51.794;12.258;2023-10-13T10:55:22;10.20;;;5.70;;
1679;SDS011;838;51.794;12.258;2023-10-13T10:58:00;8.73;;;5.57;;
1679;SDS011;838;51.794;12.258;2023-10-13T11:00:48;8.40;;;5.27;;
1679;SDS011;838;51.794;12.258;2023-10-13T11:03:26;9.37;;;6.03;;
1679;SDS011;838;51.794;12.258;2023-10-13T11:06:03;7.37;;;4.93;;
1679;SDS011;838;51.794;12.258;2023-10-13T11:08:30;9.17;;;4.67;;
1679;SDS011;838;51.794;12.258;2023-10-13T11:11:02;6.90;;;4.67;;
1679;SDS011;838;51.794;12.258;2023-10-13T11:13:42;11.00;;;5.53;;
1679;SDS011;838;51.794;12.258;2023-10-13T11:16:20;7.60;;;4.87;;
1679;SDS011;838;51.794;12.258;2023-10-13T11:18:59;8.07;;;4.57;;
1679;SDS011;838;51.794;12.258;2023-10-13T11:21:28;5.80;;;4.10;;
1679;SDS011;838;51.794;12.258;2023-10-13T11:23:58;6.17;;;3.70;;
1679;SDS011;838;51.794;12.258;2023-10-13T11:26:36;9.30;;;4.50;;
1679;SDS011;838;51.794;12.258;2023-10-13T11:29:16;8.37;;;4.87;;
1679;SDS011;838;51.794;12.258;2023-10-13T11:31:44;7.10;;;4.47;;
1679;SDS011;838;51.794;12.258;2023-10-13T11:34:11;8.77;;;5.23;;
1679;SDS011;838;51.794;12.258;2023-10-13T11:36:42;6.40;;;3.67;;
1679;SDS011;838;51.794;12.258;2023-10-13T11:39:08;6.43;;;4.50;;
1679;SDS011;838;51.794;12.258;2023-10-13T11:41:34;6.30;;;4.13;;
1679;SDS011;838;51.794;12.258;2023-10-13T11:44:03;9.13;;;3.87;;
1679;SDS011;838;51.794;12.258;2023-10-13T11:46:54;11.00;;;4.50;;
1679;SDS011;838;51.794;12.258;2023-10-13T11:49:42;10.60;;;4.57;;
1679;SDS011;838;51.794;12.258;2023-10-13T11:52:08;8.23;;;4.03;;
1679;SDS011;838;51.794;12.258;2023-10-13T11:54:54;6.03;;;3.80;;
1679;SDS011;838;51.794;12.258;2023-10-13T11:57:20;7.97;;;4.33;;
1679;SDS011;838;51.794;12.258;2023-10-13T11:59:46;7.40;;;3.40;;
1679;SDS011;838;51.794;12.258;2023-10-13T12:02:19;11.30;;;3.87;;
1679;SDS011;838;51.794;12.258;2023-10-13T12:04:51;6.37;;;3.87;;
1679;SDS011;838;51.794;12.258;2023-10-13T12:07:19;8.50;;;3.50;;
1679;SDS011;838;51.794;12.258;2023-10-13T12:09:49;5.30;;;2.83;;
1679;SDS011;838;51.794;12.258;2023-10-13T12:12:25;7.17;;;3.73;;
1679;SDS011;838;51.794;12.258;2023-10-13T12:14:52;6.47;;;3.50;;
1679;SDS011;838;51.794;12.258;2023-10-13T12:17:29;7.30;;;3.70;;
1679;SDS011;838;51.794;12.258;2023-10-13T12:20:04;8.53;;;3.00;;
1679;SDS011;838;51.794;12.258;2023-10-13T12:22:34;9.27;;;3.83;;
1679;SDS011;838;51.794;12.258;2023-10-13T12:25:03;6.87;;;3.17;;
1679;SDS011;838;51.794;12.258;2023-10-13T12:27:43;5.50;;;3.53;;
1679;SDS011;838;51.794;12.258;2023-10-13T12:30:15;8.30;;;3.20;;
1679;SDS011;838;51.794;12.258;2023-10-13T12:32:57;9.40;;;3.50;;
1679;SDS011;838;51.794;12.258;2023-10-13T12:35:33;8.30;;;2.77;;
1679;SDS011;838;51.794;12.258;2023-10-13T12:38:02;5.73;;;2.83;;
1679;SDS011;838;51.794;12.258;2023-10-13T12:40:33;7.07;;;3.43;;
1679;SDS011;838;51.794;12.258;2023-10-13T12:43:17;8.10;;;3.50;;
1679;SDS011;838;51.794;12.258;2023-10-13T12:46:04;8.47;;;3.20;;
1679;SDS011;838;51.794;12.258;2023-10-13T12:48:51;5.30;;;2.90;;
1679;SDS011;838;51.794;12.258;2023-10-13T12:51:39;7.73;;;3.23;;
1679;SDS011;838;51.794;12.258;2023-10-13T12:54:06;7.13;;;3.43;;
1679;SDS011;838;51.794;12.258;2023-10-13T12:56:45;7.90;;;3.10;;
1679;SDS011;838;51.794;12.258;2023-10-13T12:59:11;6.00;;;3.40;;
1679;SDS011;838;51.794;12.258;2023-10-13T13:01:40;8.27;;;3.13;;
1679;SDS011;838;51.794;12.258;2023-10-13T13:04:09;5.77;;;3.20;;
1679;SDS011;838;51.794;12.258;2023-10-13T13:06:49;7.37;;;3.33;;
1679;SDS011;838;51.794;12.258;2023-10-13T13:09:15;6.50;;;3.50;;
1679;SDS011;838;51.794;12.258;2023-10-13T13:11:41;8.50;;;3.63;;
1679;SDS011;838;51.794;12.258;2023-10-13T13:14:07;5.53;;;2.70;;
1679;SDS011;838;51.794;12.258;2023-10-13T13:16:34;8.83;;;3.73;;
1679;SDS011;838;51.794;12.258;2023-10-13T13:19:00;17.30;;;3.90;;
1679;SDS011;838;51.794;12.258;2023-10-13T13:21:35;6.37;;;2.93;;
1679;SDS011;838;51.794;12.258;2023-10-13T13:24:02;9.43;;;3.27;;
1679;SDS011;838;51.794;12.258;2023-10-13T13:26:29;6.03;;;2.77;;
1679;SDS011;838;51.794;12.258;2023-10-13T13:28:56;6.87;;;3.40;;
1679;SDS011;838;51.794;12.258;2023-10-13T13:31:22;7.73;;;3.50;;
1679;SDS011;838;51.794;12.258;2023-10-13T13:33:57;8.57;;;3.50;;
1679;SDS011;838;51.794;12.258;2023-10-13T13:36:27;5.90;;;3.40;;
1679;SDS011;838;51.794;12.258;2023-10-13T13:38:55;7.13;;;3.50;;
1679;SDS011;838;51.794;12.258;2023-10-13T13:41:25;6.13;;;3.30;;
1679;SDS011;838;51.794;12.258;2023-10-13T13:43:51;8.40;;;3.70;;
1679;SDS011;838;51.794;12.258;2023-10-13T13:46:29;6.40;;;3.30;;
1679;SDS011;838;51.794;12.258;2023-10-13T13:48:58;6.43;;;3.70;;
1679;SDS011;838;51.794;12.258;2023-10-13T13:51:28;5.87;;;3.50;;
1679;SDS011;838;51.794;12.258;2023-10-13T13:53:57;9.67;;;4.20;;
1679;SDS011;838;51.794;12.258;2023-10-13T13:56:26;9.10;;;4.23;;
1679;SDS011;838;51.794;12.258;2023-10-13T13:58:56;6.73;;;3.63;;
1679;SDS011;838;51.794;12.258;2023-10-13T14:01:32;9.47;;;4.40;;
1679;SDS011;838;51.794;12.258;2023-10-13T14:04:02;6.60;;;3.60;;
1679;SDS011;838;51.794;12.258;2023-10-13T14:06:31;7.27;;;4.10;;
1679;SDS011;838;51.794;12.258;2023-10-13T14:08:59;7.07;;;3.73;;
1679;SDS011;838;51.794;12.258;2023-10-13T14:11:31;6.53;;;3.63;;
1679;SDS011;838;51.794;12.258;2023-10-13T14:14:10;6.87;;;3.70;;
1679;SDS011;838;51.794;12.258;2023-10-13T14:16:38;7.63;;;3.87;;
1679;SDS011;838;51.794;12.258;2023-10-13T14:19:09;9.67;;;4.00;;
1679;SDS011;838;51.794;12.258;2023-10-13T14:21:58;6.60;;;3.80;;
1679;SDS011;838;51.794;12.258;2023-10-13T14:24:31;9.03;;;4.20;;
1679;SDS011;838;51.794;12.258;2023-10-13T14:27:11;6.13;;;3.57;;
1679;SDS011;838;51.794;12.258;2023-10-13T14:29:39;4.93;;;3.20;;
1679;SDS011;838;51.794;12.258;2023-10-13T14:32:14;12.27;;;4.20;;
1679;SDS011;838;51.794;12.258;2023-10-13T14:34:46;6.53;;;3.50;;
1679;SDS011;838;51.794;12.258;2023-10-13T14:37:21;5.60;;;2.83;;
1679;SDS011;838;51.794;12.258;2023-10-13T14:39:57;6.20;;;3.40;;
1679;SDS011;838;51.794;12.258;2023-10-13T14:42:28;7.20;;;3.50;;
1679;SDS011;838;51.794;12.258;2023-10-13T14:44:54;12.73;;;4.37;;
1679;SDS011;838;51.794;12.258;2023-10-13T14:47:25;5.27;;;3.30;;
1679;SDS011;838;51.794;12.258;2023-10-13T14:49:54;6.00;;;3.37;;
1679;SDS011;838;51.794;12.258;2023-10-13T14:52:27;6.80;;;3.03;;
1679;SDS011;838;51.794;12.258;2023-10-13T14:54:57;6.70;;;3.80;;
1679;SDS011;838;51.794;12.258;2023-10-13T14:57:32;5.73;;;2.80;;
1679;SDS011;838;51.794;12.258;2023-10-13T15:00:02;6.53;;;3.17;;
1679;SDS011;838;51.794;12.258;2023-10-13T15:02:39;7.37;;;3.20;;
1679;SDS011;838;51.794;12.258;2023-10-13T15:05:08;7.20;;;3.17;;
1679;SDS011;838;51.794;12.258;2023-10-13T15:07:41;5.90;;;3.33;;
1679;SDS011;838;51.794;12.258;2023-10-13T15:10:11;8.87;;;4.20;;
1679;SDS011;838;51.794;12.258;2023-10-13T15:12:40;7.13;;;4.17;;
1679;SDS011;838;51.794;12.258;2023-10-13T15:15:17;10.17;;;3.90;;
1679;SDS011;838;51.794;12.258;2023-10-13T15:17:49;5.83;;;2.50;;
1679;SDS011;838;51.794;12.258;2023-10-13T15:20:17;5.83;;;2.80;;
1679;SDS011;838;51.794;12.258;2023-10-13T15:22:45;5.30;;;3.43;;
1679;SDS011;838;51.794;12.258;2023-10-13T15:25:14;8.00;;;3.80;;
1679;SDS011;838;51.794;12.258;2023-10-13T15:27:57;6.27;;;3.43;;
1679;SDS011;838;51.794;12.258;2023-10-13T15:30:33;7.23;;;3.40;;
1679;SDS011;838;51.794;12.258;2023-10-13T15:33:21;6.43;;;3.70;;
1679;SDS011;838;51.794;12.258;2023-10-13T15:35:48;5.57;;;2.93;;
1679;SDS011;838;51.794;12.258;2023-10-13T15:38:16;7.37;;;3.30;;
1679;SDS011;838;51.794;12.258;2023-10-13T15:40:44;6.70;;;3.97;;
1679;SDS011;838;51.794;12.258;2023-10-13T15:43:10;8.33;;;3.63;;
1679;SDS011;838;51.794;12.258;2023-10-13T15:45:37;5.97;;;3.40;;
1679;SDS011;838;51.794;12.258;2023-10-13T15:48:08;6.07;;;3.13;;
1679;SDS011;838;51.794;12.258;2023-10-13T15:50:39;5.03;;;3.00;;
1679;SDS011;838;51.794;12.258;2023-10-13T15:53:09;8.70;;;2.67;;
1679;SDS011;838;51.794;12.258;2023-10-13T15:55:38;7.50;;;3.23;;
1679;SDS011;838;51.794;12.258;2023-10-13T15:58:04;5.57;;;3.10;;
1679;SDS011;838;51.794;12.258;2023-10-13T16:00:33;7.03;;;3.20;;
1679;SDS011;838;51.794;12.258;2023-10-13T16:03:03;6.03;;;3.30;;
1679;SDS011;838;51.794;12.258;2023-10-13T16:05:35;5.70;;;3.43;;
1679;SDS011;838;51.794;12.258;2023-10-13T16:08:04;7.77;;;3.33;;
1679;SDS011;838;51.794;12.258;2023-10-13T16:10:36;6.07;;;3.10;;